Time;durP1;ratioP1;P1;durP2;ratioP2;P2;SDS_P1;SDS_P2;PMS_P1;PMS_P2;Temp;Humidity;BMP_temperature;BMP_pressure;BME280_temperature;BME280_humidity;BME280_pressure;Samples;Min_cycle;Max_cycle;Signal;HPM_P1;HPM_P2
2021/12/21 00:00:37;;;;;;;2.10;1.87;;;;;;;0.24;25.64;98058.25;5040236;28;20294;-78
2021/12/21 00:03:03;;;;;;;3.07;1.90;;;;;;;0.03;26.02;98056.66;5090347;28;20789;-77
2021/12/21 00:05:29;;;;;;;2.43;2.00;;;;;;;-0.12;25.71;98050.94;5040413;28;20282;-77
2021/12/21 00:08:01;;;;;;;2.03;1.83;;;;;;;0.52;26.61;98030.56;5074136;28;20294;-76
2021/12/21 00:10:30;;;;;;;2.53;1.83;;;;;;;0.47;25.92;98046.63;5090450;28;20313;-76
2021/12/21 00:16:13;;;;;;;1.90;1.80;;;;;;;-0.12;26.04;98020.47;5073697;28;20834;-76
2021/12/21 00:21:11;;;;;;;2.30;1.80;;;;;;;0.20;27.02;98048.19;5038680;28;20048;-76
2021/12/21 00:23:47;;;;;;;1.60;1.50;;;;;;;-0.09;26.81;98056.75;5090403;28;20302;-78
2021/12/21 00:26:16;;;;;;;2.73;1.80;;;;;;;0.15;26.90;98053.81;5058434;28;20282;-78
2021/12/21 00:28:56;;;;;;;2.77;1.90;;;;;;;-0.25;26.99;98017.25;5076458;28;20293;-78
2021/12/21 00:31:24;;;;;;;2.58;1.80;;;;;;;-0.04;26.16;98059.78;5097145;28;20282;-78
2021/12/21 00:33:50;;;;;;;3.53;1.90;;;;;;;-0.57;25.90;98024.34;5097214;28;20063;-78
2021/12/21 00:36:17;;;;;;;1.63;1.53;;;;;;;-0.16;27.50;98060.84;5063567;28;20293;-78
2021/12/21 00:38:47;;;;;;;2.17;1.60;;;;;;;-0.17;26.21;98067.00;5046759;28;20363;-77
2021/12/21 00:41:13;;;;;;;3.03;1.67;;;;;;;-0.31;24.85;98043.03;5063467;28;20278;-78
2021/12/21 00:43:39;;;;;;;2.07;1.47;;;;;;;-0.38;25.81;98073.19;5065776;28;20290;-78
2021/12/21 00:46:05;;;;;;;1.60;1.50;;;;;;;-0.38;26.90;98068.81;5064070;28;20302;-78
2021/12/21 00:48:33;;;;;;;2.77;1.80;;;;;;;-0.28;25.59;98072.28;5096884;28;20073;-78
2021/12/21 00:51:00;;;;;;;2.03;1.30;;;;;;;-0.04;25.78;98078.06;5046975;28;20040;-78
2021/12/21 00:53:26;;;;;;;1.73;1.60;;;;;;;-0.36;26.70;98063.47;5079996;28;20675;-79
2021/12/21 00:55:52;;;;;;;3.87;1.73;;;;;;;-0.28;25.32;98066.25;5063181;28;20305;-78
2021/12/21 00:58:18;;;;;;;2.23;1.60;;;;;;;-0.32;25.54;98073.50;5079497;28;20522;-79
2021/12/21 01:00:44;;;;;;;1.70;1.40;;;;;;;-0.42;26.23;98079.63;5097094;28;20305;-78
2021/12/21 01:03:12;;;;;;;2.13;1.70;;;;;;;-0.41;25.81;98074.28;5079934;28;20378;-76
2021/12/21 01:05:59;;;;;;;2.13;1.70;;;;;;;-0.15;25.05;98087.72;5080323;28;20048;-76
2021/12/21 01:08:29;;;;;;;2.00;1.77;;;;;;;-0.65;25.75;98078.09;5049236;28;20286;-76
2021/12/21 01:11:14;;;;;;;5.63;2.13;;;;;;;-0.54;26.12;98078.84;5063744;28;20293;-76
2021/12/21 01:14:16;;;;;;;2.50;1.70;;;;;;;-0.78;24.79;98078.28;5066315;28;20292;-78
2021/12/21 01:16:36;;;;;;;1.63;1.53;;;;;;;-0.76;26.44;98083.34;5082122;28;20297;-76
2021/12/21 01:21:38;;;;;;;2.27;1.80;;;;;;;-0.62;25.99;98081.28;5097174;28;20310;-77
2021/12/21 01:24:18;;;;;;;1.83;1.60;;;;;;;-0.56;26.11;98093.81;5080773;28;20301;-77
2021/12/21 01:31:58;;;;;;;3.17;1.97;;;;;;;-0.62;26.44;98080.44;5063011;28;20795;-76
2021/12/21 01:37:03;;;;;;;1.60;1.40;;;;;;;-0.77;26.64;98074.69;5063483;28;20286;-76
2021/12/21 01:42:19;;;;;;;1.83;1.30;;;;;;;-0.77;27.04;98092.13;5075499;28;20316;-79
2021/12/21 01:50:13;;;;;;;4.40;1.80;;;;;;;-0.74;25.39;98095.28;5094069;28;20270;-79
2021/12/21 01:52:39;;;;;;;2.40;1.90;;;;;;;-0.77;26.50;98092.94;5059749;28;20305;-78
2021/12/21 01:55:06;;;;;;;2.00;1.80;;;;;;;-0.36;25.86;98105.19;5075997;28;20424;-78
2021/12/21 01:57:32;;;;;;;2.67;2.00;;;;;;;-0.70;26.22;98096.72;5077475;28;20074;-78
2021/12/21 01:59:58;;;;;;;2.30;1.73;;;;;;;-0.71;27.05;98099.44;5076679;28;20730;-78
2021/12/21 02:02:24;;;;;;;1.80;1.53;;;;;;;-0.81;26.69;98091.56;5058328;28;20067;-78
2021/12/21 02:04:50;;;;;;;1.70;1.50;;;;;;;-0.66;28.00;98092.91;5075484;28;20622;-78
2021/12/21 02:07:16;;;;;;;3.07;1.90;;;;;;;-0.52;26.79;98102.19;5058410;28;20079;-78
2021/12/21 02:09:42;;;;;;;1.70;1.60;;;;;;;-0.72;26.78;98101.22;5058661;28;20067;-78
2021/12/21 02:12:14;;;;;;;1.80;1.70;;;;;;;0.06;26.35;98103.38;5074695;28;20851;-76
2021/12/21 02:14:41;;;;;;;4.17;1.73;;;;;;;-0.21;27.22;98103.91;5074995;28;20039;-76
2021/12/21 02:20:37;;;;;;;5.43;1.70;;;;;;;0.10;24.71;98107.34;5059374;28;20833;-78
2021/12/21 02:23:21;;;;;;;7.93;1.63;;;;;;;-1.06;26.34;98084.06;5091341;28;20670;-78
2021/12/21 02:30:45;;;;;;;2.13;1.57;;;;;;;-0.69;25.88;98129.63;5059247;28;20745;-78
2021/12/21 02:33:12;;;;;;;2.90;1.70;;;;;;;-0.88;24.96;98115.63;5093948;28;20106;-76
2021/12/21 02:35:38;;;;;;;5.07;2.80;;;;;;;-1.06;24.95;98130.94;5059219;28;20281;-75
2021/12/21 02:38:04;;;;;;;4.40;1.77;;;;;;;-1.03;26.74;98135.09;5058997;28;20366;-76
2021/12/21 02:40:31;;;;;;;2.00;1.50;;;;;;;-0.73;26.13;98132.63;5058639;28;20317;-76
2021/12/21 02:42:57;;;;;;;4.03;1.63;;;;;;;-0.97;26.55;98138.03;5075559;28;20312;-76
2021/12/21 02:45:23;;;;;;;1.73;1.50;;;;;;;-1.09;25.52;98143.41;5041810;28;20290;-76
2021/12/21 02:47:49;;;;;;;1.53;1.43;;;;;;;-1.12;25.56;98143.66;5093396;28;20315;-76
2021/12/21 02:50:14;;;;;;;2.90;1.33;;;;;;;-1.32;25.23;98110.56;5074933;28;20044;-75
2021/12/21 02:52:40;;;;;;;2.53;1.60;;;;;;;-1.21;26.38;98136.53;5074956;28;20143;-75
2021/12/21 02:55:07;;;;;;;2.50;1.90;;;;;;;-0.97;25.79;98139.81;5041616;28;20047;-78
2021/12/21 02:57:33;;;;;;;1.70;1.60;;;;;;;-1.18;26.50;98137.16;5074291;28;20039;-77
2021/12/21 03:00:01;;;;;;;2.17;1.70;;;;;;;-1.30;26.53;98145.94;5057706;28;20393;-76
2021/12/21 03:02:27;;;;;;;1.83;1.63;;;;;;;-1.08;26.38;98147.66;5074163;28;20844;-76
2021/12/21 03:04:54;;;;;;;2.13;1.93;;;;;;;-1.38;24.88;98145.69;5057323;28;20372;-77
2021/12/21 03:09:56;;;;;;;3.23;1.80;;;;;;;-1.13;26.91;98155.00;5091134;28;20685;-76
2021/12/21 03:14:50;;;;;;;3.23;1.70;;;;;;;-0.67;27.96;98147.75;5090613;28;20304;-76
2021/12/21 03:17:16;;;;;;;2.20;1.70;;;;;;;-1.15;27.37;98151.72;5090840;28;20290;-77
2021/12/21 03:19:42;;;;;;;2.97;1.67;;;;;;;-1.22;25.90;98156.56;5107565;28;20286;-75
2021/12/21 03:22:09;;;;;;;2.43;1.80;;;;;;;-0.62;25.94;98162.09;5073707;28;20032;-76
2021/12/21 03:24:35;;;;;;;3.07;1.70;;;;;;;-0.81;26.20;98161.91;5057294;28;20059;-76
2021/12/21 03:27:03;;;;;;;1.50;1.40;;;;;;;-0.87;26.90;98112.06;5040219;28;20284;-75
2021/12/21 03:29:29;;;;;;;1.50;1.40;;;;;;;-0.77;26.75;98165.09;5090528;28;20278;-75
2021/12/21 03:31:55;;;;;;;2.23;1.60;;;;;;;-0.93;26.84;98169.88;5089970;28;20281;-76
2021/12/21 03:34:21;;;;;;;2.50;1.47;;;;;;;-1.06;26.71;98172.63;5089950;28;20281;-76
2021/12/21 03:36:47;;;;;;;1.73;1.63;;;;;;;-1.11;25.06;98169.59;5040255;28;20282;-76
2021/12/21 03:39:19;;;;;;;2.27;1.90;;;;;;;-0.99;26.21;98155.59;5091432;28;20048;-75
2021/12/21 03:41:54;;;;;;;6.73;2.87;;;;;;;-0.18;26.34;98161.88;5090407;28;20396;-75
2021/12/21 03:44:20;;;;;;;3.63;2.40;;;;;;;-0.85;25.97;98168.34;5090196;28;20371;-75
2021/12/21 03:46:50;;;;;;;2.73;1.93;;;;;;;-1.23;26.23;98133.25;5039861;28;20321;-77
2021/12/21 03:52:01;;;;;;;3.03;1.83;;;;;;;-0.45;25.56;98174.59;5075256;28;20392;-77
2021/12/21 03:54:27;;;;;;;2.30;1.70;;;;;;;-0.91;25.68;98176.66;5056015;28;20286;-76
2021/12/21 03:56:53;;;;;;;3.77;2.20;;;;;;;-0.81;25.60;98179.31;5056780;28;20843;-76
2021/12/21 03:59:20;;;;;;;3.63;1.60;;;;;;;-0.31;25.78;98187.28;5055996;28;20290;-76
2021/12/21 04:01:47;;;;;;;2.43;1.70;;;;;;;-0.29;25.78;98182.78;5106392;28;20089;-75
2021/12/21 04:04:13;;;;;;;3.80;1.70;;;;;;;-0.75;24.87;98192.69;5072059;28;20290;-76
2021/12/21 04:06:39;;;;;;;2.57;2.10;;;;;;;-0.89;26.30;98185.16;5039878;28;20652;-76
2021/12/21 04:09:06;;;;;;;2.07;1.80;;;;;;;-0.34;26.78;98194.56;5089871;28;20397;-76
2021/12/21 04:11:33;;;;;;;4.53;1.90;;;;;;;-0.46;26.26;98192.97;5089655;28;20089;-74
2021/12/21 04:14:00;;;;;;;3.23;1.90;;;;;;;-1.13;25.89;98072.50;5055780;28;20821;-75
2021/12/21 04:16:26;;;;;;;3.33;2.00;;;;;;;-0.67;25.59;98195.50;5072355;28;20288;-75
2021/12/21 04:18:52;;;;;;;2.00;1.67;;;;;;;-1.06;26.41;98159.59;5072931;28;20381;-78
2021/12/21 04:21:17;;;;;;;1.87;1.60;;;;;;;-1.03;25.50;98195.84;5072754;28;20694;-77
2021/12/21 04:23:44;;;;;;;1.87;1.60;;;;;;;-0.94;27.05;98178.66;5072756;28;20137;-72
2021/12/21 04:26:11;;;;;;;1.87;1.70;;;;;;;-0.81;25.55;98203.59;5081948;28;20114;-68
2021/12/21 04:28:37;;;;;;;3.27;2.00;;;;;;;-1.07;26.35;98202.25;5070520;28;20279;-72
2021/12/21 04:31:04;;;;;;;2.00;1.80;;;;;;;-0.89;26.15;98187.75;5104889;28;20294;-72
2021/12/21 04:33:31;;;;;;;3.03;1.97;;;;;;;-0.85;26.16;98197.00;5071042;28;20278;-72
2021/12/21 04:35:58;;;;;;;2.53;1.73;;;;;;;-0.99;25.78;98179.03;5071074;28;20294;-71
2021/12/21 04:38:28;;;;;;;2.03;1.70;;;;;;;-0.96;25.84;98217.88;5071830;28;20800;-71
2021/12/21 04:41:03;;;;;;;4.43;1.93;;;;;;;-0.67;24.94;98212.94;5072317;28;20278;-71
2021/12/21 04:43:29;;;;;;;4.00;2.00;;;;;;;-1.10;25.54;98212.91;5070971;28;20298;-71
2021/12/21 04:45:54;;;;;;;1.90;1.73;;;;;;;-1.24;24.73;98223.56;5088174;28;20312;-70
2021/12/21 04:48:20;;;;;;;3.73;1.83;;;;;;;-1.25;24.58;98214.09;5043865;28;20591;-71
2021/12/21 04:50:46;;;;;;;2.30;2.10;;;;;;;-1.16;25.68;98226.41;5067346;28;20040;-72
2021/12/21 04:53:13;;;;;;;2.30;2.03;;;;;;;-1.08;25.70;98226.66;5082039;28;20044;-70
2021/12/21 04:55:39;;;;;;;1.90;1.57;;;;;;;-1.26;25.84;98220.25;5071090;28;20040;-72
2021/12/21 04:58:05;;;;;;;2.60;1.63;;;;;;;-1.08;26.62;98229.25;5054346;28;20282;-74
2021/12/21 05:00:31;;;;;;;1.90;1.80;;;;;;;-1.16;25.18;98233.38;5071094;28;20412;-73
2021/12/21 05:02:57;;;;;;;2.40;1.80;;;;;;;-1.40;26.00;98236.13;5088173;28;20290;-74
2021/12/21 05:05:23;;;;;;;2.97;1.97;;;;;;;-1.08;26.59;98241.44;5054518;28;20302;-72
2021/12/21 05:07:55;;;;;;;2.87;2.30;;;;;;;-1.25;26.97;98232.34;5053587;28;20040;-73
2021/12/21 05:10:21;;;;;;;3.27;1.80;;;;;;;-1.27;27.21;98242.03;5069851;28;20435;-75
2021/12/21 05:12:47;;;;;;;3.70;1.90;;;;;;;-1.29;25.35;98243.91;5070791;28;20404;-75
2021/12/21 05:15:13;;;;;;;5.00;1.97;;;;;;;-1.43;25.69;98235.53;5089078;28;20101;-74
2021/12/21 05:17:39;;;;;;;1.70;1.60;;;;;;;-1.05;27.11;98246.41;5074342;28;20274;-73
2021/12/21 05:20:05;;;;;;;3.47;2.23;;;;;;;-1.00;26.41;98216.44;5090790;28;20128;-75
2021/12/21 05:22:31;;;;;;;2.60;2.00;;;;;;;-0.96;25.12;98250.91;5058736;28;20723;-76
2021/12/21 05:24:57;;;;;;;2.70;2.00;;;;;;;-1.09;25.65;98240.59;5041805;28;20274;-74
2021/12/21 05:27:23;;;;;;;3.13;2.23;;;;;;;-1.09;24.30;98240.59;5076110;28;20067;-73
2021/12/21 05:29:50;;;;;;;1.80;1.70;;;;;;;-0.88;25.56;98249.34;5093389;28;20139;-76
2021/12/21 05:32:16;;;;;;;2.57;2.00;;;;;;;-1.06;24.93;98244.75;5092601;28;20327;-76
2021/12/21 05:34:42;;;;;;;6.70;2.30;;;;;;;-1.02;25.07;98252.22;5059058;28;20308;-76
2021/12/21 05:37:08;;;;;;;2.50;1.90;;;;;;;-1.00;24.44;98258.09;5075073;28;20044;-75
2021/12/21 05:39:54;;;;;;;2.80;2.13;;;;;;;-0.73;24.38;98258.56;5058398;28;20051;-77
2021/12/21 05:42:20;;;;;;;5.20;2.33;;;;;;;-1.08;24.19;98268.31;5044178;28;20286;-75
2021/12/21 05:44:46;;;;;;;4.00;2.20;;;;;;;-1.11;24.74;98268.56;5091411;28;20305;-72
2021/12/21 05:47:12;;;;;;;3.57;2.23;;;;;;;-1.20;24.72;98258.84;5058370;28;20288;-74
2021/12/21 05:49:38;;;;;;;2.07;1.87;;;;;;;-1.34;23.96;98246.06;5057516;28;20670;-74
2021/12/21 05:52:04;;;;;;;2.13;1.80;;;;;;;-1.05;24.56;98268.09;5041290;28;20521;-75
2021/12/21 05:54:30;;;;;;;4.47;2.03;;;;;;;-1.41;25.04;98246.63;5057831;28;20051;-76
2021/12/21 05:56:56;;;;;;;2.80;2.00;;;;;;;-1.24;25.15;98247.00;5074460;28;20670;-75
2021/12/21 05:59:22;;;;;;;3.83;2.13;;;;;;;-1.30;24.63;98249.25;5074336;28;20040;-74
2021/12/21 06:01:47;;;;;;;5.87;2.40;;;;;;;-1.27;25.10;98254.22;5074627;28;20040;-75
2021/12/21 06:04:13;;;;;;;4.70;2.20;;;;;;;-1.20;24.98;98258.84;5074664;28;20048;-77
2021/12/21 06:06:39;;;;;;;5.20;2.10;;;;;;;-1.32;24.65;98256.38;5057796;28;20044;-77
2021/12/21 06:09:08;;;;;;;2.30;2.07;;;;;;;-1.28;25.81;98256.03;5074400;28;20415;-76
2021/12/21 06:11:41;;;;;;;1.97;1.70;;;;;;;-1.04;25.54;98238.47;5074321;28;20052;-76
2021/12/21 06:27:33;;;;;;;2.67;1.70;;;;;;;-1.16;25.90;98277.66;5073255;28;20623;-75
2021/12/21 06:30:00;;;;;;;3.80;1.97;;;;;;;-1.05;25.60;98286.31;5057645;28;20373;-78
2021/12/21 06:32:26;;;;;;;3.53;2.07;;;;;;;-1.18;27.03;98258.72;5073861;28;20048;-75
2021/12/21 06:34:52;;;;;;;5.47;2.27;;;;;;;-0.78;25.63;98297.19;5057734;28;20327;-76
2021/12/21 06:37:18;;;;;;;4.37;2.63;;;;;;;-0.99;25.44;98303.25;5056769;28;20286;-72
2021/12/21 06:39:44;;;;;;;4.90;2.10;;;;;;;-1.17;25.10;98281.22;5057193;28;20316;-77
2021/12/21 06:42:11;;;;;;;4.10;2.20;;;;;;;-0.85;25.72;98285.59;5057506;28;20797;-78
2021/12/21 06:44:42;;;;;;;4.43;2.40;;;;;;;-0.88;26.89;98300.63;5074816;28;20845;-76
2021/12/21 06:52:40;;;;;;;5.13;2.50;;;;;;;-0.65;25.43;98297.06;5076389;28;20290;-78
2021/12/21 06:55:07;;;;;;;3.67;2.47;;;;;;;-0.62;25.21;98315.06;5073637;28;20278;-77
2021/12/21 06:57:34;;;;;;;4.63;2.27;;;;;;;-0.94;25.02;98306.31;5089933;28;20297;-75
2021/12/21 07:00:00;;;;;;;2.47;2.17;;;;;;;-0.86;24.83;98275.28;5040301;28;20811;-75
2021/12/21 07:02:27;;;;;;;3.27;2.33;;;;;;;-0.78;25.32;98320.66;5091879;28;20293;-74
2021/12/21 07:04:53;;;;;;;4.33;2.40;;;;;;;-0.92;25.13;98315.66;5090707;28;20331;-77
2021/12/21 07:07:19;;;;;;;5.03;2.27;;;;;;;-0.91;25.00;98319.94;5040826;28;20372;-76
2021/12/21 07:09:54;;;;;;;3.90;2.70;;;;;;;-1.03;25.08;98312.25;5056994;28;20376;-74
2021/12/21 07:20:15;;;;;;;6.73;2.40;;;;;;;-1.08;25.27;98337.81;5058923;28;20373;-75
2021/12/21 07:22:41;;;;;;;4.70;2.57;;;;;;;-1.20;25.93;98328.34;5089657;28;20282;-69
2021/12/21 07:25:07;;;;;;;3.17;2.63;;;;;;;-0.87;25.69;98337.00;5056044;28;20287;-71
2021/12/21 07:27:33;;;;;;;3.77;2.53;;;;;;;-0.98;27.03;98342.19;5089590;28;20412;-69
2021/12/21 07:29:59;;;;;;;4.10;2.33;;;;;;;-0.85;25.57;98350.75;5089845;28;20293;-69
2021/12/21 07:32:25;;;;;;;2.73;2.20;;;;;;;-0.85;26.93;98342.94;5072543;28;20036;-70
2021/12/21 07:34:50;;;;;;;2.80;2.07;;;;;;;-0.80;26.51;98345.97;5089538;28;20048;-67
2021/12/21 07:37:16;;;;;;;2.57;2.03;;;;;;;-0.70;27.09;98340.88;5088900;28;20039;-70
2021/12/21 07:39:42;;;;;;;7.13;2.73;;;;;;;-0.69;26.93;98342.56;5088414;28;20036;-71
2021/12/21 07:42:08;;;;;;;3.03;2.43;;;;;;;-0.48;26.58;98340.88;5039028;28;20055;-61
2021/12/21 07:44:34;;;;;;;3.47;2.00;;;;;;;-0.33;27.15;98317.03;5089216;28;20075;-66
2021/12/21 07:47:00;;;;;;;3.00;2.43;;;;;;;-0.05;26.10;98352.97;5055780;28;20126;-66
2021/12/21 07:49:26;;;;;;;4.33;2.47;;;;;;;0.08;26.74;98344.97;5088840;28;20365;-66
2021/12/21 07:51:52;;;;;;;3.13;2.30;;;;;;;0.14;25.06;98348.88;5089825;28;20074;-70
2021/12/21 07:54:18;;;;;;;4.37;2.43;;;;;;;0.17;23.83;98351.25;5072407;28;20290;-67
2021/12/21 07:56:44;;;;;;;4.40;2.30;;;;;;;0.45;24.98;98350.63;5071358;28;20040;-66
2021/12/21 07:59:11;;;;;;;3.63;2.30;;;;;;;0.50;24.93;98344.09;5088910;28;20040;-66
2021/12/21 08:01:38;;;;;;;4.17;2.23;;;;;;;0.64;26.30;98353.38;5088488;28;20386;-68
2021/12/21 08:04:07;;;;;;;2.67;2.20;;;;;;;0.53;26.28;98356.06;5072106;28;20707;-67
2021/12/21 08:06:34;;;;;;;7.43;2.50;;;;;;;0.19;25.15;98289.28;5072277;28;20331;-68
2021/12/21 08:09:01;;;;;;;4.97;2.43;;;;;;;0.51;23.85;98356.19;5092022;28;20322;-68
2021/12/21 08:14:05;;;;;;;4.77;2.53;;;;;;;1.07;24.75;98361.88;5088934;28;20635;-66
2021/12/21 08:16:31;;;;;;;2.87;2.27;;;;;;;0.52;24.10;98354.41;5071730;28;20763;-66
2021/12/21 08:18:57;;;;;;;4.13;2.60;;;;;;;0.45;25.57;98345.41;5088321;28;20368;-67
2021/12/21 08:21:25;;;;;;;4.07;2.40;;;;;;;0.64;25.87;98356.00;5038432;28;20373;-66
2021/12/21 08:23:51;;;;;;;4.67;2.80;;;;;;;0.46;24.80;98326.19;5088786;28;20147;-66
2021/12/21 08:26:17;;;;;;;5.37;2.57;;;;;;;0.90;24.94;98360.72;5088059;28;20282;-67
2021/12/21 08:28:43;;;;;;;5.07;2.83;;;;;;;0.67;24.56;98361.81;5031955;28;20283;-66
2021/12/21 08:31:12;;;;;;;5.57;2.70;;;;;;;0.97;24.02;98361.03;5088977;28;20339;-67
2021/12/21 08:33:39;;;;;;;3.87;2.50;;;;;;;1.08;24.90;98353.09;5088595;28;20051;-67
2021/12/21 08:36:10;;;;;;;3.70;2.40;;;;;;;1.46;24.05;98355.88;5070956;28;20385;-67
2021/12/21 08:38:38;;;;;;;4.37;2.10;;;;;;;1.06;23.96;98353.22;5104601;28;20298;-67
2021/12/21 08:41:04;;;;;;;3.67;2.47;;;;;;;0.98;23.97;98333.91;5071450;28;20300;-66
2021/12/21 08:43:32;;;;;;;3.83;2.60;;;;;;;0.93;24.18;98362.22;5053883;28;20290;-66
2021/12/21 08:45:58;;;;;;;4.20;2.50;;;;;;;1.17;25.12;98360.16;5071933;28;20638;-66
2021/12/21 08:48:26;;;;;;;3.83;2.50;;;;;;;0.90;24.37;98324.13;5088088;28;20274;-66
2021/12/21 08:50:54;;;;;;;3.37;2.43;;;;;;;1.08;24.62;98330.38;5057834;28;20276;-66
2021/12/21 08:53:20;;;;;;;5.83;2.70;;;;;;;1.04;24.94;98367.38;5075005;28;20290;-67
2021/12/21 08:55:46;;;;;;;15.40;2.50;;;;;;;0.84;24.67;98344.72;5091978;28;20286;-67
2021/12/21 08:58:13;;;;;;;4.97;2.40;;;;;;;1.29;24.42;98372.19;5058713;28;20331;-67
2021/12/21 09:00:40;;;;;;;3.80;2.40;;;;;;;1.14;24.49;98368.25;5074902;28;20097;-66
2021/12/21 09:03:07;;;;;;;5.93;2.90;;;;;;;1.14;24.70;98365.63;5091878;28;20286;-67
2021/12/21 09:05:33;;;;;;;3.77;2.50;;;;;;;0.90;25.09;98344.19;5092803;28;20282;-66
2021/12/21 09:08:00;;;;;;;4.90;2.70;;;;;;;1.44;24.66;98352.56;5092923;28;20284;-66
2021/12/21 09:10:27;;;;;;;5.30;2.77;;;;;;;1.19;25.08;98366.06;5075037;28;20380;-66
2021/12/21 09:12:53;;;;;;;5.13;3.37;;;;;;;1.27;24.14;98369.72;5091865;28;20370;-66
2021/12/21 09:15:21;;;;;;;10.97;4.57;;;;;;;1.36;24.49;98365.47;5091694;28;20309;-68
2021/12/21 09:17:47;;;;;;;4.73;3.10;;;;;;;1.41;24.55;98369.34;5070630;28;20569;-66
2021/12/21 09:20:21;;;;;;;3.60;2.60;;;;;;;1.62;24.92;98361.41;5071493;28;20141;-66
2021/12/21 09:22:48;;;;;;;3.10;2.43;;;;;;;1.43;24.69;98374.47;5071050;28;20355;-67
2021/12/21 09:25:14;;;;;;;3.43;2.37;;;;;;;1.20;24.39;98378.22;5070584;28;20344;-66
2021/12/21 09:27:40;;;;;;;3.93;2.60;;;;;;;1.44;24.92;98373.47;5054861;28;20279;-66
2021/12/21 09:30:09;;;;;;;8.27;3.07;;;;;;;1.71;24.81;98381.56;5053144;28;20538;-65
2021/12/21 09:32:35;;;;;;;10.67;4.13;;;;;;;1.34;24.60;98372.59;5054648;28;20044;-67
2021/12/21 09:35:00;;;;;;;6.87;3.23;;;;;;;1.24;24.80;98377.81;5071821;28;20826;-65
2021/12/21 09:37:26;;;;;;;5.87;2.97;;;;;;;1.34;24.38;98381.28;5089871;28;20126;-65
2021/12/21 09:39:55;;;;;;;10.23;2.67;;;;;;;1.71;24.78;98369.31;5057054;28;20036;-65
2021/12/21 09:42:23;;;;;;;4.20;2.70;;;;;;;1.65;23.41;98380.31;5065635;28;20044;-65
2021/12/21 09:44:49;;;;;;;4.00;2.47;;;;;;;1.35;25.55;98377.69;5085368;28;20047;-65
2021/12/21 09:47:15;;;;;;;6.40;2.67;;;;;;;1.59;24.82;98377.38;5087902;28;20519;-65
2021/12/21 09:49:42;;;;;;;7.63;2.83;;;;;;;1.71;24.86;98368.47;5089694;28;20044;-65
2021/12/21 09:52:09;;;;;;;7.10;3.10;;;;;;;1.67;23.45;98333.91;5066989;28;20083;-65
2021/12/21 09:54:36;;;;;;;4.60;2.60;;;;;;;1.84;23.34;98373.47;5073681;28;20044;-65
2021/12/21 09:57:03;;;;;;;3.80;2.47;;;;;;;1.88;24.62;98373.06;5074128;28;20040;-64
2021/12/21 09:59:29;;;;;;;4.97;2.83;;;;;;;1.65;23.06;98374.22;5055838;28;20047;-66
2021/12/21 10:01:56;;;;;;;5.43;2.50;;;;;;;1.67;23.45;98375.78;5072408;28;20044;-68
2021/12/21 10:04:24;;;;;;;9.33;3.00;;;;;;;2.05;23.08;98376.78;5056919;28;20071;-68
2021/12/21 10:06:51;;;;;;;9.83;3.20;;;;;;;1.67;23.16;98314.75;5053603;28;20043;-68
2021/12/21 10:09:19;;;;;;;5.37;2.83;;;;;;;1.98;23.54;98375.69;5090845;28;20039;-68
2021/12/21 10:11:48;;;;;;;5.37;2.80;;;;;;;2.23;23.13;98391.72;5070528;28;20555;-66
2021/12/21 10:14:18;;;;;;;7.03;3.07;;;;;;;2.32;23.48;98374.38;5071738;28;20036;-69
2021/12/21 10:16:45;;;;;;;5.63;2.95;;;;;;;1.82;23.32;98370.97;5053364;28;20119;-65
2021/12/21 10:19:24;;;;;;;7.17;3.13;;;;;;;2.58;23.05;98385.94;5086767;28;20043;-66
2021/12/21 10:21:50;;;;;;;6.30;3.00;;;;;;;1.88;22.85;98365.19;5084864;28;20032;-69
2021/12/21 10:24:24;;;;;;;6.77;3.00;;;;;;;2.58;22.91;98389.41;5086681;28;20039;-67
2021/12/21 10:26:52;;;;;;;9.30;3.03;;;;;;;2.15;23.54;98326.13;5050131;28;20403;-68
2021/12/21 10:29:18;;;;;;;5.93;2.73;;;;;;;2.01;23.45;98385.91;5086342;28;20119;-67
2021/12/21 10:31:47;;;;;;;5.37;2.97;;;;;;;1.73;22.89;98340.38;5053042;28;20031;-67
2021/12/21 10:34:15;;;;;;;7.40;3.30;;;;;;;2.52;23.39;98387.31;5087875;28;20080;-67
2021/12/21 10:36:43;;;;;;;7.63;3.40;;;;;;;2.52;22.52;98389.13;5053283;28;20498;-66
2021/12/21 10:39:09;;;;;;;6.80;2.93;;;;;;;2.08;22.88;98379.16;5071518;28;20547;-68
2021/12/21 10:41:44;;;;;;;6.40;3.30;;;;;;;2.71;22.74;98389.09;5087581;28;20059;-66
2021/12/21 10:44:11;;;;;;;4.47;3.00;;;;;;;2.01;23.25;98393.75;5068055;28;20040;-67
2021/12/21 10:46:42;;;;;;;5.07;2.87;;;;;;;2.31;23.23;98377.94;5088811;28;20043;-66
2021/12/21 10:49:09;;;;;;;5.70;2.60;;;;;;;2.41;23.36;98389.25;5066441;28;20127;-63
2021/12/21 10:51:50;;;;;;;5.00;2.80;;;;;;;2.23;23.24;98383.03;5088311;28;20135;-67
2021/12/21 10:54:31;;;;;;;6.37;3.13;;;;;;;2.58;22.22;98388.56;5088893;28;20040;-66
2021/12/21 10:57:02;;;;;;;4.60;2.75;;;;;;;2.44;23.12;98389.81;5089807;28;20059;-66
2021/12/21 10:59:33;;;;;;;5.80;3.10;;;;;;;2.15;23.62;98383.72;5072092;28;20130;-65
2021/12/21 11:02:14;;;;;;;3.47;2.80;;;;;;;2.40;22.65;98385.00;5089667;28;20089;-66
2021/12/21 11:04:43;;;;;;;5.07;2.87;;;;;;;2.09;23.82;98383.44;5039201;28;20174;-66
2021/12/21 11:07:19;;;;;;;6.90;3.00;;;;;;;1.75;22.65;98388.19;5105928;28;20051;-65
2021/12/21 11:09:58;;;;;;;4.77;2.77;;;;;;;1.99;23.12;98388.66;5090902;28;20043;-65
2021/12/21 11:12:25;;;;;;;6.23;3.00;;;;;;;1.25;23.25;98392.53;5090280;28;20064;-65
2021/12/21 11:14:54;;;;;;;5.70;3.00;;;;;;;1.08;23.13;98387.06;5090223;28;20039;-65
2021/12/21 11:17:21;;;;;;;5.93;3.00;;;;;;;1.27;23.97;98395.00;5070799;28;20071;-66
2021/12/21 11:19:47;;;;;;;3.27;2.40;;;;;;;0.81;23.89;98364.09;5086582;28;20044;-66
2021/12/21 11:22:13;;;;;;;4.40;2.93;;;;;;;1.20;24.23;98406.97;5086923;28;20475;-66
2021/12/21 11:24:40;;;;;;;6.43;2.90;;;;;;;1.03;23.23;98410.16;5087043;28;20128;-66
2021/12/21 11:27:06;;;;;;;4.73;2.80;;;;;;;0.90;23.62;98417.38;5086271;28;20048;-66
2021/12/21 11:29:34;;;;;;;4.70;2.87;;;;;;;0.97;23.01;98414.09;5053001;28;20994;-66
2021/12/21 11:32:02;;;;;;;3.53;2.43;;;;;;;0.78;23.61;98405.31;5070474;28;20447;-67
2021/12/21 11:34:33;;;;;;;5.17;2.77;;;;;;;0.45;23.31;98423.75;5088646;28;20315;-66
2021/12/21 11:39:43;;;;;;;5.30;3.03;;;;;;;0.05;24.35;98412.28;5088641;28;20044;-66
2021/12/21 11:42:16;;;;;;;5.30;3.20;;;;;;;-0.09;23.88;98380.25;5055579;28;20337;-66
2021/12/21 11:44:54;;;;;;;5.47;3.47;;;;;;;0.18;24.28;98381.63;5072148;28;20306;-67
2021/12/21 11:47:35;;;;;;;5.13;2.77;;;;;;;0.25;24.12;98425.38;5055356;28;20278;-66
2021/12/21 11:50:05;;;;;;;4.78;3.03;;;;;;;-0.21;23.41;98396.91;5088379;28;20278;-66
2021/12/21 11:52:43;;;;;;;8.32;3.33;;;;;;;0.11;23.82;98423.03;5088584;28;20201;-66
2021/12/21 11:55:09;;;;;;;5.07;3.00;;;;;;;-0.44;24.19;98425.72;5089926;28;20035;-65
2021/12/21 11:57:41;;;;;;;3.53;2.80;;;;;;;-0.14;23.43;98426.75;5088166;28;20293;-71
2021/12/21 12:00:11;;;;;;;7.63;2.93;;;;;;;-0.58;24.46;98445.06;5054735;28;20301;-68
2021/12/21 12:02:42;;;;;;;9.17;3.10;;;;;;;-0.26;24.21;98434.72;5088135;28;20351;-66
2021/12/21 12:05:25;;;;;;;5.83;2.87;;;;;;;0.15;23.69;98449.72;5071128;28;20305;-68
2021/12/21 12:08:11;;;;;;;5.93;3.03;;;;;;;0.10;23.48;98455.31;5088319;28;20269;-68
2021/12/21 12:10:55;;;;;;;4.70;2.80;;;;;;;-0.23;24.27;98458.78;5071293;28;20810;-66
2021/12/21 12:13:40;;;;;;;7.03;3.37;;;;;;;0.17;24.59;98463.50;5089251;28;20285;-66
2021/12/21 12:16:17;;;;;;;11.00;3.30;;;;;;;0.15;24.31;98471.44;5071516;28;20325;-66
2021/12/21 12:18:49;;;;;;;5.77;2.60;;;;;;;-0.13;24.45;98471.94;5087348;28;20282;-67
2021/12/21 12:21:17;;;;;;;5.73;2.97;;;;;;;-0.17;24.31;98460.09;5089221;28;20285;-68
2021/12/21 12:23:52;;;;;;;4.63;2.83;;;;;;;-0.17;24.02;98429.59;5088466;28;20854;-67
2021/12/21 12:26:33;;;;;;;4.90;3.13;;;;;;;-0.09;24.16;98478.56;5104396;28;20777;-66
2021/12/21 12:29:16;;;;;;;6.97;3.13;;;;;;;-0.47;23.79;98441.59;5088189;28;20282;-66
2021/12/21 12:31:46;;;;;;;6.67;2.63;;;;;;;-0.74;24.07;98485.44;5087543;28;20665;-65
2021/12/21 12:34:22;;;;;;;4.95;2.97;;;;;;;-0.60;24.13;98464.38;5070972;28;20274;-66
2021/12/21 12:36:51;;;;;;;5.40;2.70;;;;;;;-1.33;24.25;98474.25;5087481;28;20086;-66
2021/12/21 12:39:37;;;;;;;16.40;2.93;;;;;;;-0.68;23.95;98485.81;5103383;28;20355;-66
2021/12/21 12:42:07;;;;;;;5.40;2.93;;;;;;;-0.92;24.47;98490.25;5084543;28;20267;-66
2021/12/21 12:44:33;;;;;;;3.17;2.37;;;;;;;-1.38;25.25;98483.38;5050660;28;20371;-67
2021/12/21 12:47:02;;;;;;;5.60;3.07;;;;;;;-1.09;24.41;98500.28;5068394;28;20367;-68
2021/12/21 12:49:30;;;;;;;5.70;2.70;;;;;;;-1.27;25.13;98504.22;5069714;28;20389;-66
2021/12/21 12:52:30;;;;;;;6.40;3.20;;;;;;;-0.92;24.23;98507.69;5086482;28;20799;-65
2021/12/21 12:55:04;;;;;;;3.03;2.40;;;;;;;-1.29;24.63;98473.09;5084094;28;20288;-65